<?xml version="1.0" encoding="UTF-8" standalone="no" ?>
<gpx xmlns="http://www.topografix.com/GPX/1/1" xmlns:xsi="http://www.w3.org/2001/XMLSchema-instance" xsi:schemaLocation="http://www.topografix.com/GPX/1/1 http://www.topografix.com/GPX/1/1/gpx.xsd" version="1.1" creator="VisuGPX - https://www.visugpx.com">
  <metadata>
    <name>Villiers-sur-Marne/Noisy-le-grand</name>
    <desc><![CDATA[Villiers-sur-Marne/Noisy-le-grand: Jonction en voiture]]></desc>
  </metadata>
  <trk>
    <name><![CDATA[20180826175923-u2d5c]]></name>
    <trkseg>
      <trkpt lat="48.84847" lon="2.55691">
        <ele>85.6</ele>
        <time>2018-08-26T09:41:11Z</time>
      </trkpt>
      <trkpt lat="48.84848" lon="2.55691">
        <ele>85.6</ele>
        <time>2018-08-26T09:41:12Z</time>
      </trkpt>
      <trkpt lat="48.84849" lon="2.55694">
        <ele>85.4</ele>
        <time>2018-08-26T09:41:28Z</time>
      </trkpt>
      <trkpt lat="48.84852" lon="2.55691">
        <ele>85.5</ele>
        <time>2018-08-26T09:41:49Z</time>
      </trkpt>
      <trkpt lat="48.84841" lon="2.55681">
        <ele>86.2</ele>
        <time>2018-08-26T09:42:02Z</time>
      </trkpt>
      <trkpt lat="48.84828" lon="2.55668">
        <ele>87.4</ele>
        <time>2018-08-26T09:42:18Z</time>
      </trkpt>
      <trkpt lat="48.84826" lon="2.55666">
        <ele>87.6</ele>
        <time>2018-08-26T09:42:20Z</time>
      </trkpt>
      <trkpt lat="48.84812" lon="2.5565">
        <ele>88.1</ele>
        <time>2018-08-26T09:42:34Z</time>
      </trkpt>
      <trkpt lat="48.8481" lon="2.55629">
        <ele>87.9</ele>
        <time>2018-08-26T09:42:49Z</time>
      </trkpt>
      <trkpt lat="48.84809" lon="2.55623">
        <ele>87.9</ele>
        <time>2018-08-26T09:42:53Z</time>
      </trkpt>
      <trkpt lat="48.84803" lon="2.55592">
        <ele>88.9</ele>
        <time>2018-08-26T09:43:10Z</time>
      </trkpt>
      <trkpt lat="48.848" lon="2.5557">
        <ele>89.5</ele>
        <time>2018-08-26T09:43:25Z</time>
      </trkpt>
      <trkpt lat="48.84796" lon="2.55547">
        <ele>89.9</ele>
        <time>2018-08-26T09:43:42Z</time>
      </trkpt>
      <trkpt lat="48.84797" lon="2.55519">
        <ele>90</ele>
        <time>2018-08-26T09:43:57Z</time>
      </trkpt>
      <trkpt lat="48.84796" lon="2.55515">
        <ele>89.9</ele>
        <time>2018-08-26T09:43:59Z</time>
      </trkpt>
      <trkpt lat="48.84794" lon="2.55503">
        <ele>89.5</ele>
        <time>2018-08-26T09:44:05Z</time>
      </trkpt>
      <trkpt lat="48.84788" lon="2.55468">
        <ele>89.9</ele>
        <time>2018-08-26T09:44:23Z</time>
      </trkpt>
      <trkpt lat="48.84788" lon="2.5544">
        <ele>89.6</ele>
        <time>2018-08-26T09:44:39Z</time>
      </trkpt>
      <trkpt lat="48.84786" lon="2.55408">
        <ele>89.2</ele>
        <time>2018-08-26T09:44:56Z</time>
      </trkpt>
      <trkpt lat="48.84786" lon="2.55381">
        <ele>88.7</ele>
        <time>2018-08-26T09:45:10Z</time>
      </trkpt>
      <trkpt lat="48.84787" lon="2.55354">
        <ele>88.7</ele>
        <time>2018-08-26T09:45:26Z</time>
      </trkpt>
      <trkpt lat="48.84786" lon="2.55352">
        <ele>88.7</ele>
        <time>2018-08-26T09:45:40Z</time>
      </trkpt>
      <trkpt lat="48.84791" lon="2.55337">
        <ele>88.5</ele>
        <time>2018-08-26T09:46:01Z</time>
      </trkpt>
      <trkpt lat="48.848" lon="2.55328">
        <ele>88</ele>
        <time>2018-08-26T09:46:21Z</time>
      </trkpt>
      <trkpt lat="48.84809" lon="2.55329">
        <ele>87.7</ele>
        <time>2018-08-26T09:46:42Z</time>
      </trkpt>
      <trkpt lat="48.84817" lon="2.55342">
        <ele>87.6</ele>
        <time>2018-08-26T09:47:05Z</time>
      </trkpt>
      <trkpt lat="48.84819" lon="2.55334">
        <ele>87.5</ele>
        <time>2018-08-26T09:47:24Z</time>
      </trkpt>
      <trkpt lat="48.84823" lon="2.55325">
        <ele>87.3</ele>
        <time>2018-08-26T09:47:44Z</time>
      </trkpt>
      <trkpt lat="48.84829" lon="2.55332">
        <ele>87.1</ele>
        <time>2018-08-26T09:48:07Z</time>
      </trkpt>
      <trkpt lat="48.84833" lon="2.55348">
        <ele>87</ele>
        <time>2018-08-26T09:48:34Z</time>
      </trkpt>
      <trkpt lat="48.84835" lon="2.55351">
        <ele>86.9</ele>
        <time>2018-08-26T09:48:58Z</time>
      </trkpt>
      <trkpt lat="48.8483" lon="2.5533">
        <ele>87.1</ele>
        <time>2018-08-26T09:49:18Z</time>
      </trkpt>
      <trkpt lat="48.84827" lon="2.55319">
        <ele>87.1</ele>
        <time>2018-08-26T09:49:38Z</time>
      </trkpt>
      <trkpt lat="48.84825" lon="2.55328">
        <ele>87.3</ele>
        <time>2018-08-26T09:50:00Z</time>
      </trkpt>
      <trkpt lat="48.84824" lon="2.55337">
        <ele>87.3</ele>
        <time>2018-08-26T09:50:21Z</time>
      </trkpt>
      <trkpt lat="48.84823" lon="2.55349">
        <ele>87.4</ele>
        <time>2018-08-26T09:50:44Z</time>
      </trkpt>
      <trkpt lat="48.84822" lon="2.5534">
        <ele>87.4</ele>
        <time>2018-08-26T09:51:10Z</time>
      </trkpt>
      <trkpt lat="48.84822" lon="2.55342">
        <ele>87.4</ele>
        <time>2018-08-26T09:51:36Z</time>
      </trkpt>
      <trkpt lat="48.84824" lon="2.55344">
        <ele>87.3</ele>
        <time>2018-08-26T09:52:05Z</time>
      </trkpt>
      <trkpt lat="48.8482" lon="2.55354">
        <ele>87.5</ele>
        <time>2018-08-26T09:52:25Z</time>
      </trkpt>
      <trkpt lat="48.84816" lon="2.55354">
        <ele>87.6</ele>
        <time>2018-08-26T09:52:45Z</time>
      </trkpt>
      <trkpt lat="48.8481" lon="2.55345">
        <ele>87.8</ele>
        <time>2018-08-26T09:53:06Z</time>
      </trkpt>
      <trkpt lat="48.84804" lon="2.55342">
        <ele>88.1</ele>
        <time>2018-08-26T09:53:29Z</time>
      </trkpt>
      <trkpt lat="48.84799" lon="2.55329">
        <ele>88.1</ele>
        <time>2018-08-26T09:53:46Z</time>
      </trkpt>
      <trkpt lat="48.84794" lon="2.55331">
        <ele>88.4</ele>
        <time>2018-08-26T09:54:08Z</time>
      </trkpt>
      <trkpt lat="48.84794" lon="2.55336">
        <ele>88.4</ele>
        <time>2018-08-26T09:54:30Z</time>
      </trkpt>
      <trkpt lat="48.84799" lon="2.55338">
        <ele>88.2</ele>
        <time>2018-08-26T09:54:52Z</time>
      </trkpt>
      <trkpt lat="48.84808" lon="2.55331">
        <ele>87.8</ele>
        <time>2018-08-26T09:55:10Z</time>
      </trkpt>
      <trkpt lat="48.84815" lon="2.55344">
        <ele>87.6</ele>
        <time>2018-08-26T09:55:31Z</time>
      </trkpt>
      <trkpt lat="48.84825" lon="2.55346">
        <ele>87.3</ele>
        <time>2018-08-26T09:55:51Z</time>
      </trkpt>
      <trkpt lat="48.84829" lon="2.55335">
        <ele>87.2</ele>
        <time>2018-08-26T09:56:15Z</time>
      </trkpt>
      <trkpt lat="48.84829" lon="2.55327">
        <ele>87.1</ele>
        <time>2018-08-26T09:56:44Z</time>
      </trkpt>
      <trkpt lat="48.84824" lon="2.55321">
        <ele>87.2</ele>
        <time>2018-08-26T09:57:15Z</time>
      </trkpt>
      <trkpt lat="48.84824" lon="2.55324">
        <ele>87.2</ele>
        <time>2018-08-26T09:57:45Z</time>
      </trkpt>
      <trkpt lat="48.84828" lon="2.5533">
        <ele>87.2</ele>
        <time>2018-08-26T09:58:18Z</time>
      </trkpt>
      <trkpt lat="48.84828" lon="2.55328">
        <ele>87.2</ele>
        <time>2018-08-26T09:58:47Z</time>
      </trkpt>
      <trkpt lat="48.84826" lon="2.55321">
        <ele>87.1</ele>
        <time>2018-08-26T09:59:14Z</time>
      </trkpt>
      <trkpt lat="48.84826" lon="2.55318">
        <ele>87.1</ele>
        <time>2018-08-26T09:59:37Z</time>
      </trkpt>
      <trkpt lat="48.84834" lon="2.55327">
        <ele>87</ele>
        <time>2018-08-26T10:00:00Z</time>
      </trkpt>
      <trkpt lat="48.84833" lon="2.55328">
        <ele>87</ele>
        <time>2018-08-26T10:00:25Z</time>
      </trkpt>
      <trkpt lat="48.84833" lon="2.55326">
        <ele>87</ele>
        <time>2018-08-26T10:00:47Z</time>
      </trkpt>
      <trkpt lat="48.84835" lon="2.55333">
        <ele>86.9</ele>
        <time>2018-08-26T10:01:14Z</time>
      </trkpt>
      <trkpt lat="48.84838" lon="2.55337">
        <ele>86.8</ele>
        <time>2018-08-26T10:01:38Z</time>
      </trkpt>
      <trkpt lat="48.84838" lon="2.55334">
        <ele>86.8</ele>
        <time>2018-08-26T10:02:06Z</time>
      </trkpt>
      <trkpt lat="48.84838" lon="2.55339">
        <ele>86.8</ele>
        <time>2018-08-26T10:02:38Z</time>
      </trkpt>
      <trkpt lat="48.84837" lon="2.55337">
        <ele>86.9</ele>
        <time>2018-08-26T10:03:08Z</time>
      </trkpt>
      <trkpt lat="48.84834" lon="2.55341">
        <ele>87</ele>
        <time>2018-08-26T10:03:31Z</time>
      </trkpt>
      <trkpt lat="48.84839" lon="2.55339">
        <ele>86.8</ele>
        <time>2018-08-26T10:04:06Z</time>
      </trkpt>
      <trkpt lat="48.84832" lon="2.55341">
        <ele>87</ele>
        <time>2018-08-26T10:04:32Z</time>
      </trkpt>
      <trkpt lat="48.84837" lon="2.55339">
        <ele>86.9</ele>
        <time>2018-08-26T10:04:56Z</time>
      </trkpt>
      <trkpt lat="48.84836" lon="2.55342">
        <ele>86.9</ele>
        <time>2018-08-26T10:05:21Z</time>
      </trkpt>
      <trkpt lat="48.84832" lon="2.55341">
        <ele>87</ele>
        <time>2018-08-26T10:05:53Z</time>
      </trkpt>
      <trkpt lat="48.84836" lon="2.55346">
        <ele>86.9</ele>
        <time>2018-08-26T10:06:24Z</time>
      </trkpt>
      <trkpt lat="48.84837" lon="2.55345">
        <ele>86.9</ele>
        <time>2018-08-26T10:06:48Z</time>
      </trkpt>
      <trkpt lat="48.84838" lon="2.55349">
        <ele>86.8</ele>
        <time>2018-08-26T10:07:16Z</time>
      </trkpt>
      <trkpt lat="48.84836" lon="2.55349">
        <ele>86.9</ele>
        <time>2018-08-26T10:07:43Z</time>
      </trkpt>
      <trkpt lat="48.84836" lon="2.55352">
        <ele>86.9</ele>
        <time>2018-08-26T10:08:06Z</time>
      </trkpt>
      <trkpt lat="48.84837" lon="2.55364">
        <ele>86.9</ele>
        <time>2018-08-26T10:08:22Z</time>
      </trkpt>
      <trkpt lat="48.84832" lon="2.55358">
        <ele>87</ele>
        <time>2018-08-26T10:08:37Z</time>
      </trkpt>
      <trkpt lat="48.84832" lon="2.55356">
        <ele>87.1</ele>
        <time>2018-08-26T10:08:59Z</time>
      </trkpt>
      <trkpt lat="48.84833" lon="2.55355">
        <ele>87</ele>
        <time>2018-08-26T10:09:08Z</time>
      </trkpt>
      <trkpt lat="48.84834" lon="2.55352">
        <ele>87</ele>
        <time>2018-08-26T10:09:32Z</time>
      </trkpt>
      <trkpt lat="48.84833" lon="2.55351">
        <ele>87</ele>
        <time>2018-08-26T10:10:00Z</time>
      </trkpt>
      <trkpt lat="48.84836" lon="2.55353">
        <ele>86.9</ele>
        <time>2018-08-26T10:10:15Z</time>
      </trkpt>
      <trkpt lat="48.84834" lon="2.55351">
        <ele>87</ele>
        <time>2018-08-26T10:10:51Z</time>
      </trkpt>
      <trkpt lat="48.84834" lon="2.55353">
        <ele>87</ele>
        <time>2018-08-26T10:11:29Z</time>
      </trkpt>
      <trkpt lat="48.84832" lon="2.55351">
        <ele>87</ele>
        <time>2018-08-26T10:11:56Z</time>
      </trkpt>
      <trkpt lat="48.84835" lon="2.55352">
        <ele>87</ele>
        <time>2018-08-26T10:12:17Z</time>
      </trkpt>
      <trkpt lat="48.84836" lon="2.5535">
        <ele>86.9</ele>
        <time>2018-08-26T10:12:43Z</time>
      </trkpt>
      <trkpt lat="48.84836" lon="2.55347">
        <ele>86.9</ele>
        <time>2018-08-26T10:13:15Z</time>
      </trkpt>
      <trkpt lat="48.84834" lon="2.5535">
        <ele>87</ele>
        <time>2018-08-26T10:13:43Z</time>
      </trkpt>
      <trkpt lat="48.84835" lon="2.55353">
        <ele>86.9</ele>
        <time>2018-08-26T10:14:12Z</time>
      </trkpt>
      <trkpt lat="48.84829" lon="2.5535">
        <ele>87.2</ele>
        <time>2018-08-26T10:14:42Z</time>
      </trkpt>
      <trkpt lat="48.84831" lon="2.5535">
        <ele>87.1</ele>
        <time>2018-08-26T10:15:12Z</time>
      </trkpt>
      <trkpt lat="48.84833" lon="2.55352">
        <ele>87</ele>
        <time>2018-08-26T10:15:41Z</time>
      </trkpt>
      <trkpt lat="48.84836" lon="2.55354">
        <ele>86.9</ele>
        <time>2018-08-26T10:16:13Z</time>
      </trkpt>
      <trkpt lat="48.84837" lon="2.5535">
        <ele>86.9</ele>
        <time>2018-08-26T10:16:43Z</time>
      </trkpt>
      <trkpt lat="48.84838" lon="2.55351">
        <ele>86.8</ele>
        <time>2018-08-26T10:17:14Z</time>
      </trkpt>
      <trkpt lat="48.84837" lon="2.5535">
        <ele>86.9</ele>
        <time>2018-08-26T10:17:43Z</time>
      </trkpt>
      <trkpt lat="48.84837" lon="2.55349">
        <ele>86.9</ele>
        <time>2018-08-26T10:18:14Z</time>
      </trkpt>
      <trkpt lat="48.84834" lon="2.55346">
        <ele>87</ele>
        <time>2018-08-26T10:18:44Z</time>
      </trkpt>
      <trkpt lat="48.84837" lon="2.55345">
        <ele>86.9</ele>
        <time>2018-08-26T10:19:13Z</time>
      </trkpt>
      <trkpt lat="48.84837" lon="2.55344">
        <ele>86.9</ele>
        <time>2018-08-26T10:19:42Z</time>
      </trkpt>
      <trkpt lat="48.84838" lon="2.55342">
        <ele>86.8</ele>
        <time>2018-08-26T10:20:04Z</time>
      </trkpt>
      <trkpt lat="48.84835" lon="2.55342">
        <ele>86.9</ele>
        <time>2018-08-26T10:20:39Z</time>
      </trkpt>
      <trkpt lat="48.84837" lon="2.55337">
        <ele>86.9</ele>
        <time>2018-08-26T10:21:10Z</time>
      </trkpt>
      <trkpt lat="48.84838" lon="2.55339">
        <ele>86.8</ele>
        <time>2018-08-26T10:21:32Z</time>
      </trkpt>
      <trkpt lat="48.84839" lon="2.55342">
        <ele>86.8</ele>
        <time>2018-08-26T10:21:53Z</time>
      </trkpt>
      <trkpt lat="48.84841" lon="2.55343">
        <ele>86.7</ele>
        <time>2018-08-26T10:22:24Z</time>
      </trkpt>
      <trkpt lat="48.84838" lon="2.55336">
        <ele>86.8</ele>
        <time>2018-08-26T10:22:58Z</time>
      </trkpt>
      <trkpt lat="48.84839" lon="2.55336">
        <ele>86.8</ele>
        <time>2018-08-26T10:23:23Z</time>
      </trkpt>
      <trkpt lat="48.84839" lon="2.5534">
        <ele>86.8</ele>
        <time>2018-08-26T10:23:52Z</time>
      </trkpt>
      <trkpt lat="48.84839" lon="2.5534">
        <ele>86.8</ele>
        <time>2018-08-26T10:23:58Z</time>
      </trkpt>
      <trkpt lat="48.84844" lon="2.55345">
        <ele>86.6</ele>
        <time>2018-08-26T10:24:28Z</time>
      </trkpt>
      <trkpt lat="48.84841" lon="2.55343">
        <ele>86.7</ele>
        <time>2018-08-26T10:24:55Z</time>
      </trkpt>
      <trkpt lat="48.84838" lon="2.55338">
        <ele>86.8</ele>
        <time>2018-08-26T10:25:25Z</time>
      </trkpt>
      <trkpt lat="48.84838" lon="2.55339">
        <ele>86.8</ele>
        <time>2018-08-26T10:25:54Z</time>
      </trkpt>
      <trkpt lat="48.84838" lon="2.55339">
        <ele>86.9</ele>
        <time>2018-08-26T10:26:24Z</time>
      </trkpt>
      <trkpt lat="48.8484" lon="2.55339">
        <ele>86.8</ele>
        <time>2018-08-26T10:26:50Z</time>
      </trkpt>
      <trkpt lat="48.84839" lon="2.55346">
        <ele>86.8</ele>
        <time>2018-08-26T10:27:17Z</time>
      </trkpt>
      <trkpt lat="48.84839" lon="2.55348">
        <ele>86.8</ele>
        <time>2018-08-26T10:27:47Z</time>
      </trkpt>
      <trkpt lat="48.84839" lon="2.5535">
        <ele>86.8</ele>
        <time>2018-08-26T10:28:17Z</time>
      </trkpt>
      <trkpt lat="48.84836" lon="2.55349">
        <ele>86.9</ele>
        <time>2018-08-26T10:28:45Z</time>
      </trkpt>
      <trkpt lat="48.84834" lon="2.55349">
        <ele>87</ele>
        <time>2018-08-26T10:29:11Z</time>
      </trkpt>
      <trkpt lat="48.84835" lon="2.55347">
        <ele>86.9</ele>
        <time>2018-08-26T10:29:47Z</time>
      </trkpt>
      <trkpt lat="48.84836" lon="2.55349">
        <ele>86.9</ele>
        <time>2018-08-26T10:30:08Z</time>
      </trkpt>
      <trkpt lat="48.84839" lon="2.55348">
        <ele>86.8</ele>
        <time>2018-08-26T10:30:35Z</time>
      </trkpt>
      <trkpt lat="48.8485" lon="2.55345">
        <ele>86.4</ele>
        <time>2018-08-26T10:31:04Z</time>
      </trkpt>
      <trkpt lat="48.84855" lon="2.55343">
        <ele>86.2</ele>
        <time>2018-08-26T10:31:34Z</time>
      </trkpt>
      <trkpt lat="48.84853" lon="2.55342">
        <ele>86.3</ele>
        <time>2018-08-26T10:31:59Z</time>
      </trkpt>
      <trkpt lat="48.8484" lon="2.55349">
        <ele>86.8</ele>
        <time>2018-08-26T10:32:17Z</time>
      </trkpt>
      <trkpt lat="48.84837" lon="2.55351">
        <ele>86.9</ele>
        <time>2018-08-26T10:32:38Z</time>
      </trkpt>
      <trkpt lat="48.84839" lon="2.55349">
        <ele>86.8</ele>
        <time>2018-08-26T10:32:49Z</time>
      </trkpt>
      <trkpt lat="48.8484" lon="2.55352">
        <ele>86.8</ele>
        <time>2018-08-26T10:33:05Z</time>
      </trkpt>
      <trkpt lat="48.8484" lon="2.55355">
        <ele>86.8</ele>
        <time>2018-08-26T10:33:20Z</time>
      </trkpt>
      <trkpt lat="48.84844" lon="2.55354">
        <ele>86.6</ele>
        <time>2018-08-26T10:33:32Z</time>
      </trkpt>
      <trkpt lat="48.84848" lon="2.55345">
        <ele>86.5</ele>
        <time>2018-08-26T10:33:44Z</time>
      </trkpt>
      <trkpt lat="48.84847" lon="2.55326">
        <ele>86.4</ele>
        <time>2018-08-26T10:33:58Z</time>
      </trkpt>
      <trkpt lat="48.84846" lon="2.55323">
        <ele>86.4</ele>
        <time>2018-08-26T10:34:00Z</time>
      </trkpt>
      <trkpt lat="48.84844" lon="2.55304">
        <ele>86.2</ele>
        <time>2018-08-26T10:34:14Z</time>
      </trkpt>
      <trkpt lat="48.84839" lon="2.55295">
        <ele>86.3</ele>
        <time>2018-08-26T10:34:25Z</time>
      </trkpt>
      <trkpt lat="48.84836" lon="2.55286">
        <ele>86.1</ele>
        <time>2018-08-26T10:34:38Z</time>
      </trkpt>
      <trkpt lat="48.84836" lon="2.55283">
        <ele>86.1</ele>
        <time>2018-08-26T10:34:42Z</time>
      </trkpt>
      <trkpt lat="48.8484" lon="2.55277">
        <ele>85.8</ele>
        <time>2018-08-26T10:34:47Z</time>
      </trkpt>
      <trkpt lat="48.84848" lon="2.55275">
        <ele>85.4</ele>
        <time>2018-08-26T10:34:57Z</time>
      </trkpt>
      <trkpt lat="48.84855" lon="2.55273">
        <ele>85.1</ele>
        <time>2018-08-26T10:35:05Z</time>
      </trkpt>
      <trkpt lat="48.84856" lon="2.55272">
        <ele>85</ele>
        <time>2018-08-26T10:35:07Z</time>
      </trkpt>
      <trkpt lat="48.84868" lon="2.55268">
        <ele>84.4</ele>
        <time>2018-08-26T10:35:20Z</time>
      </trkpt>
      <trkpt lat="48.84878" lon="2.55267">
        <ele>84</ele>
        <time>2018-08-26T10:35:32Z</time>
      </trkpt>
      <trkpt lat="48.84884" lon="2.55266">
        <ele>83.7</ele>
        <time>2018-08-26T10:35:44Z</time>
      </trkpt>
      <trkpt lat="48.84897" lon="2.55259">
        <ele>82.9</ele>
        <time>2018-08-26T10:35:55Z</time>
      </trkpt>
      <trkpt lat="48.84909" lon="2.55265">
        <ele>82.4</ele>
        <time>2018-08-26T10:36:08Z</time>
      </trkpt>
      <trkpt lat="48.84913" lon="2.55265">
        <ele>82.2</ele>
        <time>2018-08-26T10:36:11Z</time>
      </trkpt>
      <trkpt lat="48.84923" lon="2.55268">
        <ele>80.4</ele>
        <time>2018-08-26T10:36:25Z</time>
      </trkpt>
      <trkpt lat="48.84938" lon="2.55253">
        <ele>76.7</ele>
        <time>2018-08-26T10:36:39Z</time>
      </trkpt>
      <trkpt lat="48.84948" lon="2.5524">
        <ele>75</ele>
        <time>2018-08-26T10:36:54Z</time>
      </trkpt>
      <trkpt lat="48.84952" lon="2.55238">
        <ele>75</ele>
        <time>2018-08-26T10:37:12Z</time>
      </trkpt>
      <trkpt lat="48.84961" lon="2.55235">
        <ele>75</ele>
        <time>2018-08-26T10:37:28Z</time>
      </trkpt>
      <trkpt lat="48.84969" lon="2.55234">
        <ele>75</ele>
        <time>2018-08-26T10:37:41Z</time>
      </trkpt>
      <trkpt lat="48.84971" lon="2.55234">
        <ele>75</ele>
        <time>2018-08-26T10:37:44Z</time>
      </trkpt>
      <trkpt lat="48.84981" lon="2.55225">
        <ele>74.6</ele>
        <time>2018-08-26T10:37:57Z</time>
      </trkpt>
      <trkpt lat="48.84989" lon="2.55218">
        <ele>74</ele>
        <time>2018-08-26T10:38:09Z</time>
      </trkpt>
      <trkpt lat="48.84996" lon="2.55208">
        <ele>73</ele>
        <time>2018-08-26T10:38:22Z</time>
      </trkpt>
      <trkpt lat="48.84997" lon="2.55207">
        <ele>73</ele>
        <time>2018-08-26T10:38:23Z</time>
      </trkpt>
      <trkpt lat="48.85008" lon="2.55196">
        <ele>72.1</ele>
        <time>2018-08-26T10:38:39Z</time>
      </trkpt>
      <trkpt lat="48.85009" lon="2.55193">
        <ele>72</ele>
        <time>2018-08-26T10:38:45Z</time>
      </trkpt>
      <trkpt lat="48.85019" lon="2.55188">
        <ele>71.8</ele>
        <time>2018-08-26T10:38:57Z</time>
      </trkpt>
      <trkpt lat="48.8502" lon="2.55191">
        <ele>71.9</ele>
        <time>2018-08-26T10:39:06Z</time>
      </trkpt>
      <trkpt lat="48.8502" lon="2.55194">
        <ele>72</ele>
        <time>2018-08-26T10:39:16Z</time>
      </trkpt>
      <trkpt lat="48.85023" lon="2.55193">
        <ele>72</ele>
        <time>2018-08-26T10:39:20Z</time>
      </trkpt>
      <trkpt lat="48.85025" lon="2.55194">
        <ele>72</ele>
        <time>2018-08-26T10:39:22Z</time>
      </trkpt>
      <trkpt lat="48.85029" lon="2.55192">
        <ele>71.8</ele>
        <time>2018-08-26T10:39:29Z</time>
      </trkpt>
      <trkpt lat="48.85044" lon="2.55186">
        <ele>69.5</ele>
        <time>2018-08-26T10:39:45Z</time>
      </trkpt>
      <trkpt lat="48.8506" lon="2.55179">
        <ele>67.6</ele>
        <time>2018-08-26T10:40:01Z</time>
      </trkpt>
      <trkpt lat="48.85073" lon="2.55172">
        <ele>66.6</ele>
        <time>2018-08-26T10:40:14Z</time>
      </trkpt>
      <trkpt lat="48.85085" lon="2.55162">
        <ele>65.7</ele>
        <time>2018-08-26T10:40:26Z</time>
      </trkpt>
      <trkpt lat="48.85093" lon="2.55146">
        <ele>64.4</ele>
        <time>2018-08-26T10:40:40Z</time>
      </trkpt>
      <trkpt lat="48.85093" lon="2.55141">
        <ele>64.3</ele>
        <time>2018-08-26T10:40:48Z</time>
      </trkpt>
      <trkpt lat="48.85094" lon="2.55138">
        <ele>64.2</ele>
        <time>2018-08-26T10:40:50Z</time>
      </trkpt>
      <trkpt lat="48.8509" lon="2.55116">
        <ele>64.8</ele>
        <time>2018-08-26T10:41:06Z</time>
      </trkpt>
      <trkpt lat="48.85089" lon="2.55101">
        <ele>65</ele>
        <time>2018-08-26T10:41:23Z</time>
      </trkpt>
      <trkpt lat="48.85089" lon="2.55077">
        <ele>64.7</ele>
        <time>2018-08-26T10:41:39Z</time>
      </trkpt>
      <trkpt lat="48.85089" lon="2.55077">
        <ele>64.8</ele>
        <time>2018-08-26T10:41:43Z</time>
      </trkpt>
      <trkpt lat="48.85087" lon="2.55055">
        <ele>64.5</ele>
        <time>2018-08-26T10:41:57Z</time>
      </trkpt>
      <trkpt lat="48.85085" lon="2.55042">
        <ele>64.7</ele>
        <time>2018-08-26T10:42:06Z</time>
      </trkpt>
      <trkpt lat="48.85083" lon="2.55017">
        <ele>65</ele>
        <time>2018-08-26T10:42:20Z</time>
      </trkpt>
      <trkpt lat="48.85083" lon="2.55009">
        <ele>65</ele>
        <time>2018-08-26T10:42:25Z</time>
      </trkpt>
      <trkpt lat="48.85083" lon="2.54986">
        <ele>64.5</ele>
        <time>2018-08-26T10:42:41Z</time>
      </trkpt>
      <trkpt lat="48.85084" lon="2.54979">
        <ele>64.2</ele>
        <time>2018-08-26T10:42:55Z</time>
      </trkpt>
      <trkpt lat="48.85082" lon="2.54967">
        <ele>64.2</ele>
        <time>2018-08-26T10:43:08Z</time>
      </trkpt>
      <trkpt lat="48.85082" lon="2.54958">
        <ele>64.2</ele>
        <time>2018-08-26T10:43:21Z</time>
      </trkpt>
      <trkpt lat="48.85079" lon="2.54936">
        <ele>64</ele>
        <time>2018-08-26T10:43:35Z</time>
      </trkpt>
      <trkpt lat="48.8508" lon="2.54912">
        <ele>63.2</ele>
        <time>2018-08-26T10:43:49Z</time>
      </trkpt>
      <trkpt lat="48.85085" lon="2.54905">
        <ele>62.4</ele>
        <time>2018-08-26T10:43:55Z</time>
      </trkpt>
      <trkpt lat="48.85085" lon="2.54902">
        <ele>62.2</ele>
        <time>2018-08-26T10:43:57Z</time>
      </trkpt>
      <trkpt lat="48.85094" lon="2.54888">
        <ele>60.4</ele>
        <time>2018-08-26T10:44:11Z</time>
      </trkpt>
      <trkpt lat="48.85095" lon="2.54884">
        <ele>60.2</ele>
        <time>2018-08-26T10:44:26Z</time>
      </trkpt>
      <trkpt lat="48.85098" lon="2.54884">
        <ele>59.8</ele>
        <time>2018-08-26T10:44:41Z</time>
      </trkpt>
      <trkpt lat="48.85098" lon="2.54885">
        <ele>59.8</ele>
        <time>2018-08-26T10:45:05Z</time>
      </trkpt>
      <trkpt lat="48.85098" lon="2.5489">
        <ele>60</ele>
        <time>2018-08-26T10:45:26Z</time>
      </trkpt>
      <trkpt lat="48.85109" lon="2.54906">
        <ele>59.4</ele>
        <time>2018-08-26T10:45:43Z</time>
      </trkpt>
      <trkpt lat="48.8511" lon="2.54906">
        <ele>59.3</ele>
        <time>2018-08-26T10:45:50Z</time>
      </trkpt>
      <trkpt lat="48.85112" lon="2.5491">
        <ele>59.4</ele>
        <time>2018-08-26T10:45:53Z</time>
      </trkpt>
      <trkpt lat="48.85123" lon="2.54929">
        <ele>58.7</ele>
        <time>2018-08-26T10:46:08Z</time>
      </trkpt>
      <trkpt lat="48.85135" lon="2.54954">
        <ele>58.3</ele>
        <time>2018-08-26T10:46:24Z</time>
      </trkpt>
      <trkpt lat="48.85136" lon="2.54958">
        <ele>58.3</ele>
        <time>2018-08-26T10:46:27Z</time>
      </trkpt>
      <trkpt lat="48.85144" lon="2.54983">
        <ele>57.1</ele>
        <time>2018-08-26T10:46:43Z</time>
      </trkpt>
      <trkpt lat="48.85145" lon="2.54988">
        <ele>56.8</ele>
        <time>2018-08-26T10:46:46Z</time>
      </trkpt>
      <trkpt lat="48.85148" lon="2.55013">
        <ele>56.3</ele>
        <time>2018-08-26T10:47:03Z</time>
      </trkpt>
      <trkpt lat="48.85149" lon="2.55021">
        <ele>56.3</ele>
        <time>2018-08-26T10:47:15Z</time>
      </trkpt>
      <trkpt lat="48.8515" lon="2.55035">
        <ele>56.1</ele>
        <time>2018-08-26T10:47:26Z</time>
      </trkpt>
      <trkpt lat="48.85155" lon="2.55053">
        <ele>55.4</ele>
        <time>2018-08-26T10:47:36Z</time>
      </trkpt>
      <trkpt lat="48.85154" lon="2.55056">
        <ele>55.3</ele>
        <time>2018-08-26T10:47:38Z</time>
      </trkpt>
      <trkpt lat="48.85156" lon="2.55082">
        <ele>55.1</ele>
        <time>2018-08-26T10:47:54Z</time>
      </trkpt>
      <trkpt lat="48.85157" lon="2.55084">
        <ele>55</ele>
        <time>2018-08-26T10:47:57Z</time>
      </trkpt>
      <trkpt lat="48.8516" lon="2.55084">
        <ele>54.7</ele>
        <time>2018-08-26T10:48:03Z</time>
      </trkpt>
      <trkpt lat="48.85172" lon="2.55081">
        <ele>53.3</ele>
        <time>2018-08-26T10:48:17Z</time>
      </trkpt>
      <trkpt lat="48.85185" lon="2.55078">
        <ele>51.6</ele>
        <time>2018-08-26T10:48:32Z</time>
      </trkpt>
      <trkpt lat="48.85199" lon="2.55072">
        <ele>50.3</ele>
        <time>2018-08-26T10:48:46Z</time>
      </trkpt>
      <trkpt lat="48.85211" lon="2.55068">
        <ele>49</ele>
        <time>2018-08-26T10:48:59Z</time>
      </trkpt>
      <trkpt lat="48.85211" lon="2.55068">
        <ele>48.9</ele>
        <time>2018-08-26T10:49:00Z</time>
      </trkpt>
      <trkpt lat="48.85218" lon="2.55068">
        <ele>48.1</ele>
        <time>2018-08-26T10:49:15Z</time>
      </trkpt>
      <trkpt lat="48.85218" lon="2.55067">
        <ele>48.2</ele>
        <time>2018-08-26T10:49:31Z</time>
      </trkpt>
      <trkpt lat="48.85217" lon="2.55062">
        <ele>48.5</ele>
        <time>2018-08-26T10:49:37Z</time>
      </trkpt>
      <trkpt lat="48.85217" lon="2.55047">
        <ele>49</ele>
        <time>2018-08-26T10:49:51Z</time>
      </trkpt>
      <trkpt lat="48.85217" lon="2.55048">
        <ele>49</ele>
        <time>2018-08-26T10:50:05Z</time>
      </trkpt>
      <trkpt lat="48.85217" lon="2.55048">
        <ele>48.9</ele>
        <time>2018-08-26T10:50:10Z</time>
      </trkpt>
      <trkpt lat="48.85219" lon="2.55054">
        <ele>48.5</ele>
        <time>2018-08-26T10:50:15Z</time>
      </trkpt>
      <trkpt lat="48.85218" lon="2.5505">
        <ele>48.8</ele>
        <time>2018-08-26T10:50:18Z</time>
      </trkpt>
      <trkpt lat="48.85218" lon="2.55067">
        <ele>48.1</ele>
        <time>2018-08-26T10:50:32Z</time>
      </trkpt>
      <trkpt lat="48.85219" lon="2.55069">
        <ele>47.9</ele>
        <time>2018-08-26T10:50:49Z</time>
      </trkpt>
      <trkpt lat="48.85219" lon="2.55068">
        <ele>48</ele>
        <time>2018-08-26T10:51:07Z</time>
      </trkpt>
      <trkpt lat="48.85216" lon="2.55056">
        <ele>48.8</ele>
        <time>2018-08-26T10:51:22Z</time>
      </trkpt>
      <trkpt lat="48.85216" lon="2.55046">
        <ele>49.2</ele>
        <time>2018-08-26T10:51:31Z</time>
      </trkpt>
      <trkpt lat="48.85217" lon="2.55038">
        <ele>49.3</ele>
        <time>2018-08-26T10:51:36Z</time>
      </trkpt>
      <trkpt lat="48.85216" lon="2.55025">
        <ele>49.7</ele>
        <time>2018-08-26T10:51:47Z</time>
      </trkpt>
      <trkpt lat="48.85215" lon="2.55011">
        <ele>50.2</ele>
        <time>2018-08-26T10:52:02Z</time>
      </trkpt>
      <trkpt lat="48.85215" lon="2.54998">
        <ele>50.5</ele>
        <time>2018-08-26T10:52:15Z</time>
      </trkpt>
      <trkpt lat="48.85214" lon="2.54984">
        <ele>50.4</ele>
        <time>2018-08-26T10:52:29Z</time>
      </trkpt>
      <trkpt lat="48.85216" lon="2.54972">
        <ele>50.2</ele>
        <time>2018-08-26T10:52:43Z</time>
      </trkpt>
      <trkpt lat="48.85225" lon="2.5496">
        <ele>49.4</ele>
        <time>2018-08-26T10:52:56Z</time>
      </trkpt>
      <trkpt lat="48.85219" lon="2.54959">
        <ele>50.1</ele>
        <time>2018-08-26T10:53:07Z</time>
      </trkpt>
      <trkpt lat="48.85216" lon="2.54959">
        <ele>50.2</ele>
        <time>2018-08-26T10:53:21Z</time>
      </trkpt>
      <trkpt lat="48.85211" lon="2.54959">
        <ele>50.4</ele>
        <time>2018-08-26T10:53:34Z</time>
      </trkpt>
      <trkpt lat="48.85205" lon="2.54966">
        <ele>50.6</ele>
        <time>2018-08-26T10:53:46Z</time>
      </trkpt>
      <trkpt lat="48.852" lon="2.54968">
        <ele>50.8</ele>
        <time>2018-08-26T10:54:01Z</time>
      </trkpt>
      <trkpt lat="48.85199" lon="2.54967">
        <ele>50.8</ele>
        <time>2018-08-26T10:54:13Z</time>
      </trkpt>
      <trkpt lat="48.85198" lon="2.54968">
        <ele>50.9</ele>
        <time>2018-08-26T10:54:26Z</time>
      </trkpt>
      <trkpt lat="48.85194" lon="2.54971">
        <ele>51</ele>
        <time>2018-08-26T10:54:56Z</time>
      </trkpt>
      <trkpt lat="48.85194" lon="2.54969">
        <ele>51</ele>
        <time>2018-08-26T10:55:09Z</time>
      </trkpt>
      <trkpt lat="48.85193" lon="2.54961">
        <ele>51.1</ele>
        <time>2018-08-26T11:23:34Z</time>
      </trkpt>
      <trkpt lat="48.85195" lon="2.54966">
        <ele>51</ele>
        <time>2018-08-26T11:24:00Z</time>
      </trkpt>
      <trkpt lat="48.85199" lon="2.54967">
        <ele>50.8</ele>
        <time>2018-08-26T11:24:29Z</time>
      </trkpt>
      <trkpt lat="48.85205" lon="2.54976">
        <ele>50.7</ele>
        <time>2018-08-26T11:24:46Z</time>
      </trkpt>
      <trkpt lat="48.85212" lon="2.54991">
        <ele>50.6</ele>
        <time>2018-08-26T11:25:01Z</time>
      </trkpt>
      <trkpt lat="48.85214" lon="2.54996">
        <ele>50.6</ele>
        <time>2018-08-26T11:25:20Z</time>
      </trkpt>
      <trkpt lat="48.8522" lon="2.54985">
        <ele>50.1</ele>
        <time>2018-08-26T11:25:34Z</time>
      </trkpt>
      <trkpt lat="48.85225" lon="2.54968">
        <ele>49.5</ele>
        <time>2018-08-26T11:25:47Z</time>
      </trkpt>
      <trkpt lat="48.85227" lon="2.54965">
        <ele>49.2</ele>
        <time>2018-08-26T11:25:59Z</time>
      </trkpt>
      <trkpt lat="48.85228" lon="2.54966">
        <ele>48.9</ele>
        <time>2018-08-26T11:26:12Z</time>
      </trkpt>
      <trkpt lat="48.85231" lon="2.54961">
        <ele>48.4</ele>
        <time>2018-08-26T11:26:24Z</time>
      </trkpt>
      <trkpt lat="48.85227" lon="2.54958">
        <ele>49.2</ele>
        <time>2018-08-26T11:26:37Z</time>
      </trkpt>
      <trkpt lat="48.85235" lon="2.54959">
        <ele>47.7</ele>
        <time>2018-08-26T11:26:52Z</time>
      </trkpt>
      <trkpt lat="48.85239" lon="2.54958">
        <ele>47</ele>
        <time>2018-08-26T11:27:01Z</time>
      </trkpt>
      <trkpt lat="48.8525" lon="2.54955">
        <ele>45</ele>
        <time>2018-08-26T11:27:18Z</time>
      </trkpt>
      <trkpt lat="48.85256" lon="2.5497">
        <ele>44.2</ele>
        <time>2018-08-26T11:27:32Z</time>
      </trkpt>
      <trkpt lat="48.85255" lon="2.54976">
        <ele>44.1</ele>
        <time>2018-08-26T11:27:36Z</time>
      </trkpt>
      <trkpt lat="48.85262" lon="2.55004">
        <ele>42.7</ele>
        <time>2018-08-26T11:27:55Z</time>
      </trkpt>
      <trkpt lat="48.85263" lon="2.55029">
        <ele>42.2</ele>
        <time>2018-08-26T11:28:12Z</time>
      </trkpt>
      <trkpt lat="48.85267" lon="2.55056">
        <ele>42.2</ele>
        <time>2018-08-26T11:28:29Z</time>
      </trkpt>
      <trkpt lat="48.85276" lon="2.55056">
        <ele>41.2</ele>
        <time>2018-08-26T11:28:39Z</time>
      </trkpt>
      <trkpt lat="48.85286" lon="2.55053">
        <ele>40.6</ele>
        <time>2018-08-26T11:28:57Z</time>
      </trkpt>
      <trkpt lat="48.85293" lon="2.55049">
        <ele>40.2</ele>
        <time>2018-08-26T11:29:12Z</time>
      </trkpt>
      <trkpt lat="48.85305" lon="2.55048">
        <ele>39.8</ele>
        <time>2018-08-26T11:29:26Z</time>
      </trkpt>
      <trkpt lat="48.85319" lon="2.55042">
        <ele>39.3</ele>
        <time>2018-08-26T11:29:43Z</time>
      </trkpt>
      <trkpt lat="48.85336" lon="2.55037">
        <ele>38.6</ele>
        <time>2018-08-26T11:29:58Z</time>
      </trkpt>
      <trkpt lat="48.85352" lon="2.55034">
        <ele>38.1</ele>
        <time>2018-08-26T11:30:13Z</time>
      </trkpt>
      <trkpt lat="48.85371" lon="2.55028">
        <ele>38</ele>
        <time>2018-08-26T11:30:30Z</time>
      </trkpt>
      <trkpt lat="48.85372" lon="2.55031">
        <ele>38</ele>
        <time>2018-08-26T11:30:43Z</time>
      </trkpt>
      <trkpt lat="48.85375" lon="2.55033">
        <ele>38</ele>
        <time>2018-08-26T11:31:01Z</time>
      </trkpt>
      <trkpt lat="48.85377" lon="2.55032">
        <ele>38</ele>
        <time>2018-08-26T11:31:16Z</time>
      </trkpt>
      <trkpt lat="48.85376" lon="2.55033">
        <ele>38</ele>
        <time>2018-08-26T11:31:38Z</time>
      </trkpt>
      <trkpt lat="48.85377" lon="2.55035">
        <ele>38</ele>
        <time>2018-08-26T11:31:57Z</time>
      </trkpt>
      <trkpt lat="48.85385" lon="2.55031">
        <ele>38</ele>
        <time>2018-08-26T11:32:13Z</time>
      </trkpt>
      <trkpt lat="48.85394" lon="2.55027">
        <ele>38</ele>
        <time>2018-08-26T11:32:21Z</time>
      </trkpt>
      <trkpt lat="48.85407" lon="2.55021">
        <ele>37.9</ele>
        <time>2018-08-26T11:32:34Z</time>
      </trkpt>
      <trkpt lat="48.8542" lon="2.55025">
        <ele>37.7</ele>
        <time>2018-08-26T11:32:49Z</time>
      </trkpt>
      <trkpt lat="48.85425" lon="2.55031">
        <ele>37.4</ele>
        <time>2018-08-26T11:33:05Z</time>
      </trkpt>
      <trkpt lat="48.85422" lon="2.55041">
        <ele>37.6</ele>
        <time>2018-08-26T11:33:14Z</time>
      </trkpt>
      <trkpt lat="48.85423" lon="2.55069">
        <ele>37.5</ele>
        <time>2018-08-26T11:33:31Z</time>
      </trkpt>
      <trkpt lat="48.85424" lon="2.55092">
        <ele>37.5</ele>
        <time>2018-08-26T11:33:47Z</time>
      </trkpt>
      <trkpt lat="48.85425" lon="2.55109">
        <ele>37.4</ele>
        <time>2018-08-26T11:33:58Z</time>
      </trkpt>
      <trkpt lat="48.85426" lon="2.55127">
        <ele>37.3</ele>
        <time>2018-08-26T11:34:10Z</time>
      </trkpt>
      <trkpt lat="48.85427" lon="2.55141">
        <ele>37.3</ele>
        <time>2018-08-26T11:34:19Z</time>
      </trkpt>
      <trkpt lat="48.85425" lon="2.55153">
        <ele>37.4</ele>
        <time>2018-08-26T11:34:26Z</time>
      </trkpt>
      <trkpt lat="48.85425" lon="2.55189">
        <ele>37.4</ele>
        <time>2018-08-26T11:34:46Z</time>
      </trkpt>
      <trkpt lat="48.85424" lon="2.55195">
        <ele>37.5</ele>
        <time>2018-08-26T11:34:50Z</time>
      </trkpt>
      <trkpt lat="48.85424" lon="2.5522">
        <ele>37.4</ele>
        <time>2018-08-26T11:35:05Z</time>
      </trkpt>
      <trkpt lat="48.85423" lon="2.55245">
        <ele>37.5</ele>
        <time>2018-08-26T11:35:20Z</time>
      </trkpt>
      <trkpt lat="48.85421" lon="2.55267">
        <ele>37.2</ele>
        <time>2018-08-26T11:35:32Z</time>
      </trkpt>
      <trkpt lat="48.85419" lon="2.5527">
        <ele>37.2</ele>
        <time>2018-08-26T11:35:35Z</time>
      </trkpt>
      <trkpt lat="48.85415" lon="2.55272">
        <ele>37.3</ele>
        <time>2018-08-26T11:35:39Z</time>
      </trkpt>
      <trkpt lat="48.85392" lon="2.55274">
        <ele>37.9</ele>
        <time>2018-08-26T11:35:59Z</time>
      </trkpt>
      <trkpt lat="48.85379" lon="2.55278">
        <ele>38</ele>
        <time>2018-08-26T11:36:12Z</time>
      </trkpt>
      <trkpt lat="48.85357" lon="2.55279">
        <ele>38.1</ele>
        <time>2018-08-26T11:36:31Z</time>
      </trkpt>
      <trkpt lat="48.8535" lon="2.55285">
        <ele>38.3</ele>
        <time>2018-08-26T11:36:46Z</time>
      </trkpt>
      <trkpt lat="48.85342" lon="2.55284">
        <ele>38.5</ele>
        <time>2018-08-26T11:36:59Z</time>
      </trkpt>
      <trkpt lat="48.85329" lon="2.55286">
        <ele>38.7</ele>
        <time>2018-08-26T11:37:13Z</time>
      </trkpt>
      <trkpt lat="48.85311" lon="2.55288">
        <ele>38.6</ele>
        <time>2018-08-26T11:37:30Z</time>
      </trkpt>
      <trkpt lat="48.85302" lon="2.55288">
        <ele>38.8</ele>
        <time>2018-08-26T11:37:39Z</time>
      </trkpt>
      <trkpt lat="48.85284" lon="2.55281">
        <ele>39.7</ele>
        <time>2018-08-26T11:37:55Z</time>
      </trkpt>
      <trkpt lat="48.85271" lon="2.5526">
        <ele>40.5</ele>
        <time>2018-08-26T11:38:12Z</time>
      </trkpt>
      <trkpt lat="48.85257" lon="2.55239">
        <ele>41.4</ele>
        <time>2018-08-26T11:38:29Z</time>
      </trkpt>
      <trkpt lat="48.85253" lon="2.55234">
        <ele>41.7</ele>
        <time>2018-08-26T11:38:34Z</time>
      </trkpt>
      <trkpt lat="48.85247" lon="2.5523">
        <ele>42.3</ele>
        <time>2018-08-26T11:38:45Z</time>
      </trkpt>
      <trkpt lat="48.85243" lon="2.55224">
        <ele>42.8</ele>
        <time>2018-08-26T11:38:51Z</time>
      </trkpt>
      <trkpt lat="48.85238" lon="2.55219">
        <ele>43.3</ele>
        <time>2018-08-26T11:38:56Z</time>
      </trkpt>
      <trkpt lat="48.85231" lon="2.55197">
        <ele>44.1</ele>
        <time>2018-08-26T11:39:11Z</time>
      </trkpt>
      <trkpt lat="48.8523" lon="2.55182">
        <ele>44.4</ele>
        <time>2018-08-26T11:39:31Z</time>
      </trkpt>
      <trkpt lat="48.85238" lon="2.55163">
        <ele>44.4</ele>
        <time>2018-08-26T11:39:45Z</time>
      </trkpt>
      <trkpt lat="48.8525" lon="2.55137">
        <ele>43</ele>
        <time>2018-08-26T11:40:04Z</time>
      </trkpt>
      <trkpt lat="48.85254" lon="2.55128">
        <ele>42.6</ele>
        <time>2018-08-26T11:40:12Z</time>
      </trkpt>
      <trkpt lat="48.85263" lon="2.55104">
        <ele>41.8</ele>
        <time>2018-08-26T11:40:30Z</time>
      </trkpt>
      <trkpt lat="48.85267" lon="2.55078">
        <ele>41.8</ele>
        <time>2018-08-26T11:40:47Z</time>
      </trkpt>
      <trkpt lat="48.85263" lon="2.55059">
        <ele>42.6</ele>
        <time>2018-08-26T11:41:03Z</time>
      </trkpt>
      <trkpt lat="48.85248" lon="2.55061">
        <ele>44.1</ele>
        <time>2018-08-26T11:41:20Z</time>
      </trkpt>
      <trkpt lat="48.8523" lon="2.55066">
        <ele>46.5</ele>
        <time>2018-08-26T11:41:39Z</time>
      </trkpt>
      <trkpt lat="48.85227" lon="2.55067">
        <ele>46.9</ele>
        <time>2018-08-26T11:41:42Z</time>
      </trkpt>
      <trkpt lat="48.85211" lon="2.55071">
        <ele>48.9</ele>
        <time>2018-08-26T11:41:59Z</time>
      </trkpt>
      <trkpt lat="48.85196" lon="2.55074">
        <ele>50.5</ele>
        <time>2018-08-26T11:42:14Z</time>
      </trkpt>
      <trkpt lat="48.85179" lon="2.5508">
        <ele>52.3</ele>
        <time>2018-08-26T11:42:31Z</time>
      </trkpt>
      <trkpt lat="48.85164" lon="2.55085">
        <ele>54.3</ele>
        <time>2018-08-26T11:42:47Z</time>
      </trkpt>
      <trkpt lat="48.85146" lon="2.55092">
        <ele>56.3</ele>
        <time>2018-08-26T11:43:05Z</time>
      </trkpt>
      <trkpt lat="48.8515" lon="2.55084">
        <ele>55.8</ele>
        <time>2018-08-26T11:43:23Z</time>
      </trkpt>
      <trkpt lat="48.8515" lon="2.55082">
        <ele>55.8</ele>
        <time>2018-08-26T11:43:24Z</time>
      </trkpt>
      <trkpt lat="48.8515" lon="2.55079">
        <ele>55.8</ele>
        <time>2018-08-26T11:43:26Z</time>
      </trkpt>
      <trkpt lat="48.85151" lon="2.55075">
        <ele>55.7</ele>
        <time>2018-08-26T11:43:28Z</time>
      </trkpt>
      <trkpt lat="48.85149" lon="2.55054">
        <ele>55.9</ele>
        <time>2018-08-26T11:43:40Z</time>
      </trkpt>
      <trkpt lat="48.85151" lon="2.55041">
        <ele>56</ele>
        <time>2018-08-26T11:43:47Z</time>
      </trkpt>
      <trkpt lat="48.8515" lon="2.55013">
        <ele>56.2</ele>
        <time>2018-08-26T11:44:03Z</time>
      </trkpt>
      <trkpt lat="48.85145" lon="2.54983">
        <ele>56.9</ele>
        <time>2018-08-26T11:44:21Z</time>
      </trkpt>
      <trkpt lat="48.85137" lon="2.54951">
        <ele>58.2</ele>
        <time>2018-08-26T11:44:40Z</time>
      </trkpt>
      <trkpt lat="48.85125" lon="2.54926">
        <ele>58.3</ele>
        <time>2018-08-26T11:44:57Z</time>
      </trkpt>
      <trkpt lat="48.85111" lon="2.54907">
        <ele>59.3</ele>
        <time>2018-08-26T11:45:14Z</time>
      </trkpt>
      <trkpt lat="48.85094" lon="2.54889">
        <ele>60.4</ele>
        <time>2018-08-26T11:45:31Z</time>
      </trkpt>
      <trkpt lat="48.85093" lon="2.54887">
        <ele>60.6</ele>
        <time>2018-08-26T11:45:33Z</time>
      </trkpt>
      <trkpt lat="48.85091" lon="2.54881">
        <ele>60.7</ele>
        <time>2018-08-26T11:45:37Z</time>
      </trkpt>
      <trkpt lat="48.85095" lon="2.54876">
        <ele>60</ele>
        <time>2018-08-26T11:45:44Z</time>
      </trkpt>
      <trkpt lat="48.85097" lon="2.54877">
        <ele>59.9</ele>
        <time>2018-08-26T11:45:46Z</time>
      </trkpt>
      <trkpt lat="48.85108" lon="2.54876">
        <ele>58.4</ele>
        <time>2018-08-26T11:46:04Z</time>
      </trkpt>
      <trkpt lat="48.85109" lon="2.54862">
        <ele>58.2</ele>
        <time>2018-08-26T11:46:17Z</time>
      </trkpt>
      <trkpt lat="48.85109" lon="2.54858">
        <ele>58.4</ele>
        <time>2018-08-26T11:46:20Z</time>
      </trkpt>
      <trkpt lat="48.85109" lon="2.5484">
        <ele>58.9</ele>
        <time>2018-08-26T11:46:34Z</time>
      </trkpt>
      <trkpt lat="48.85108" lon="2.54824">
        <ele>59.3</ele>
        <time>2018-08-26T11:46:46Z</time>
      </trkpt>
      <trkpt lat="48.85108" lon="2.54802">
        <ele>59.5</ele>
        <time>2018-08-26T11:47:03Z</time>
      </trkpt>
      <trkpt lat="48.85108" lon="2.54801">
        <ele>59.5</ele>
        <time>2018-08-26T11:47:04Z</time>
      </trkpt>
      <trkpt lat="48.85107" lon="2.54779">
        <ele>60.3</ele>
        <time>2018-08-26T11:47:20Z</time>
      </trkpt>
      <trkpt lat="48.85107" lon="2.54761">
        <ele>60.3</ele>
        <time>2018-08-26T11:47:36Z</time>
      </trkpt>
      <trkpt lat="48.85109" lon="2.54755">
        <ele>60.1</ele>
        <time>2018-08-26T11:47:50Z</time>
      </trkpt>
      <trkpt lat="48.85111" lon="2.54757">
        <ele>60</ele>
        <time>2018-08-26T11:48:08Z</time>
      </trkpt>
      <trkpt lat="48.85103" lon="2.54754">
        <ele>60.6</ele>
        <time>2018-08-26T11:48:24Z</time>
      </trkpt>
      <trkpt lat="48.851" lon="2.54748">
        <ele>60.8</ele>
        <time>2018-08-26T11:48:40Z</time>
      </trkpt>
      <trkpt lat="48.85095" lon="2.54756">
        <ele>61.2</ele>
        <time>2018-08-26T11:48:54Z</time>
      </trkpt>
      <trkpt lat="48.85096" lon="2.54765">
        <ele>61.1</ele>
        <time>2018-08-26T11:49:08Z</time>
      </trkpt>
      <trkpt lat="48.85091" lon="2.5475">
        <ele>61.4</ele>
        <time>2018-08-26T11:49:25Z</time>
      </trkpt>
      <trkpt lat="48.8509" lon="2.54731">
        <ele>61.4</ele>
        <time>2018-08-26T11:49:40Z</time>
      </trkpt>
      <trkpt lat="48.85087" lon="2.54718">
        <ele>61.4</ele>
        <time>2018-08-26T11:49:54Z</time>
      </trkpt>
      <trkpt lat="48.85091" lon="2.54714">
        <ele>60.8</ele>
        <time>2018-08-26T11:50:09Z</time>
      </trkpt>
      <trkpt lat="48.85089" lon="2.54718">
        <ele>61.2</ele>
        <time>2018-08-26T11:50:28Z</time>
      </trkpt>
      <trkpt lat="48.85092" lon="2.54744">
        <ele>61.3</ele>
        <time>2018-08-26T11:50:45Z</time>
      </trkpt>
      <trkpt lat="48.85081" lon="2.54751">
        <ele>62.1</ele>
        <time>2018-08-26T11:51:00Z</time>
      </trkpt>
      <trkpt lat="48.85071" lon="2.54755">
        <ele>62.9</ele>
        <time>2018-08-26T11:51:14Z</time>
      </trkpt>
      <trkpt lat="48.85057" lon="2.54754">
        <ele>63.9</ele>
        <time>2018-08-26T11:51:30Z</time>
      </trkpt>
      <trkpt lat="48.85043" lon="2.54755">
        <ele>65</ele>
        <time>2018-08-26T11:51:46Z</time>
      </trkpt>
      <trkpt lat="48.85043" lon="2.54767">
        <ele>65.2</ele>
        <time>2018-08-26T11:51:56Z</time>
      </trkpt>
      <trkpt lat="48.85048" lon="2.54777">
        <ele>64.8</ele>
        <time>2018-08-26T11:52:10Z</time>
      </trkpt>
      <trkpt lat="48.85048" lon="2.54795">
        <ele>64.8</ele>
        <time>2018-08-26T11:52:26Z</time>
      </trkpt>
      <trkpt lat="48.85049" lon="2.54797">
        <ele>64.7</ele>
        <time>2018-08-26T11:52:43Z</time>
      </trkpt>
      <trkpt lat="48.85047" lon="2.54796">
        <ele>64.9</ele>
        <time>2018-08-26T11:53:01Z</time>
      </trkpt>
      <trkpt lat="48.85049" lon="2.54797">
        <ele>64.8</ele>
        <time>2018-08-26T11:53:17Z</time>
      </trkpt>
      <trkpt lat="48.85052" lon="2.54809">
        <ele>64.5</ele>
        <time>2018-08-26T11:53:35Z</time>
      </trkpt>
      <trkpt lat="48.8505" lon="2.54808">
        <ele>64.6</ele>
        <time>2018-08-26T11:53:48Z</time>
      </trkpt>
      <trkpt lat="48.85049" lon="2.54786">
        <ele>64.7</ele>
        <time>2018-08-26T11:54:04Z</time>
      </trkpt>
      <trkpt lat="48.85047" lon="2.54768">
        <ele>64.8</ele>
        <time>2018-08-26T11:54:19Z</time>
      </trkpt>
      <trkpt lat="48.85046" lon="2.54772">
        <ele>64.9</ele>
        <time>2018-08-26T11:54:40Z</time>
      </trkpt>
      <trkpt lat="48.85049" lon="2.54772">
        <ele>64.7</ele>
        <time>2018-08-26T11:54:56Z</time>
      </trkpt>
      <trkpt lat="48.85044" lon="2.54767">
        <ele>65.1</ele>
        <time>2018-08-26T11:55:14Z</time>
      </trkpt>
      <trkpt lat="48.85041" lon="2.54795">
        <ele>65.5</ele>
        <time>2018-08-26T11:55:32Z</time>
      </trkpt>
      <trkpt lat="48.85038" lon="2.54825">
        <ele>66.2</ele>
        <time>2018-08-26T11:55:51Z</time>
      </trkpt>
      <trkpt lat="48.85035" lon="2.54828">
        <ele>66.4</ele>
        <time>2018-08-26T11:55:54Z</time>
      </trkpt>
      <trkpt lat="48.85022" lon="2.54847">
        <ele>67.4</ele>
        <time>2018-08-26T11:56:11Z</time>
      </trkpt>
      <trkpt lat="48.85011" lon="2.54867">
        <ele>68.3</ele>
        <time>2018-08-26T11:56:28Z</time>
      </trkpt>
      <trkpt lat="48.85007" lon="2.54874">
        <ele>68.6</ele>
        <time>2018-08-26T11:56:35Z</time>
      </trkpt>
      <trkpt lat="48.85004" lon="2.54876">
        <ele>68.8</ele>
        <time>2018-08-26T11:56:38Z</time>
      </trkpt>
      <trkpt lat="48.84999" lon="2.54878">
        <ele>69.1</ele>
        <time>2018-08-26T11:56:44Z</time>
      </trkpt>
      <trkpt lat="48.84995" lon="2.54879">
        <ele>69.5</ele>
        <time>2018-08-26T11:56:56Z</time>
      </trkpt>
      <trkpt lat="48.84991" lon="2.54881">
        <ele>69.9</ele>
        <time>2018-08-26T11:57:01Z</time>
      </trkpt>
      <trkpt lat="48.84988" lon="2.54883">
        <ele>70.2</ele>
        <time>2018-08-26T11:57:07Z</time>
      </trkpt>
      <trkpt lat="48.84982" lon="2.54896">
        <ele>71</ele>
        <time>2018-08-26T11:57:21Z</time>
      </trkpt>
      <trkpt lat="48.84976" lon="2.54911">
        <ele>71.6</ele>
        <time>2018-08-26T11:57:34Z</time>
      </trkpt>
      <trkpt lat="48.84967" lon="2.54921">
        <ele>72.3</ele>
        <time>2018-08-26T11:57:50Z</time>
      </trkpt>
      <trkpt lat="48.84954" lon="2.54928">
        <ele>73.3</ele>
        <time>2018-08-26T11:58:06Z</time>
      </trkpt>
      <trkpt lat="48.84943" lon="2.54942">
        <ele>74.1</ele>
        <time>2018-08-26T11:58:19Z</time>
      </trkpt>
      <trkpt lat="48.8493" lon="2.54965">
        <ele>75.4</ele>
        <time>2018-08-26T11:58:38Z</time>
      </trkpt>
      <trkpt lat="48.84919" lon="2.54975">
        <ele>76</ele>
        <time>2018-08-26T11:58:52Z</time>
      </trkpt>
      <trkpt lat="48.8491" lon="2.5498">
        <ele>76.7</ele>
        <time>2018-08-26T11:59:07Z</time>
      </trkpt>
      <trkpt lat="48.84902" lon="2.54985">
        <ele>77.3</ele>
        <time>2018-08-26T11:59:20Z</time>
      </trkpt>
      <trkpt lat="48.84897" lon="2.54986">
        <ele>77.6</ele>
        <time>2018-08-26T11:59:38Z</time>
      </trkpt>
      <trkpt lat="48.84891" lon="2.54989">
        <ele>77.9</ele>
        <time>2018-08-26T11:59:46Z</time>
      </trkpt>
      <trkpt lat="48.84878" lon="2.54993">
        <ele>78.9</ele>
        <time>2018-08-26T12:00:00Z</time>
      </trkpt>
      <trkpt lat="48.84862" lon="2.55008">
        <ele>80.2</ele>
        <time>2018-08-26T12:00:15Z</time>
      </trkpt>
      <trkpt lat="48.8485" lon="2.55021">
        <ele>81.7</ele>
        <time>2018-08-26T12:00:30Z</time>
      </trkpt>
      <trkpt lat="48.8485" lon="2.55041">
        <ele>82.1</ele>
        <time>2018-08-26T12:00:45Z</time>
      </trkpt>
      <trkpt lat="48.84852" lon="2.55067">
        <ele>82.5</ele>
        <time>2018-08-26T12:01:04Z</time>
      </trkpt>
      <trkpt lat="48.84858" lon="2.55086">
        <ele>82.3</ele>
        <time>2018-08-26T12:01:19Z</time>
      </trkpt>
      <trkpt lat="48.84859" lon="2.55111">
        <ele>83.2</ele>
        <time>2018-08-26T12:01:35Z</time>
      </trkpt>
      <trkpt lat="48.84863" lon="2.55128">
        <ele>82.8</ele>
        <time>2018-08-26T12:01:52Z</time>
      </trkpt>
      <trkpt lat="48.84865" lon="2.55144">
        <ele>82.8</ele>
        <time>2018-08-26T12:02:05Z</time>
      </trkpt>
      <trkpt lat="48.84872" lon="2.55161">
        <ele>82.8</ele>
        <time>2018-08-26T12:02:20Z</time>
      </trkpt>
      <trkpt lat="48.84874" lon="2.55177">
        <ele>83</ele>
        <time>2018-08-26T12:02:32Z</time>
      </trkpt>
      <trkpt lat="48.84875" lon="2.55199">
        <ele>83.1</ele>
        <time>2018-08-26T12:02:44Z</time>
      </trkpt>
      <trkpt lat="48.84879" lon="2.55213">
        <ele>83.3</ele>
        <time>2018-08-26T12:02:55Z</time>
      </trkpt>
      <trkpt lat="48.8488" lon="2.5523">
        <ele>83.3</ele>
        <time>2018-08-26T12:03:07Z</time>
      </trkpt>
      <trkpt lat="48.84874" lon="2.55245">
        <ele>83.5</ele>
        <time>2018-08-26T12:03:22Z</time>
      </trkpt>
      <trkpt lat="48.84874" lon="2.55268">
        <ele>84.2</ele>
        <time>2018-08-26T12:03:36Z</time>
      </trkpt>
      <trkpt lat="48.84863" lon="2.55278">
        <ele>84.9</ele>
        <time>2018-08-26T12:03:51Z</time>
      </trkpt>
      <trkpt lat="48.84848" lon="2.55285">
        <ele>85.6</ele>
        <time>2018-08-26T12:04:08Z</time>
      </trkpt>
      <trkpt lat="48.84846" lon="2.55289">
        <ele>85.8</ele>
        <time>2018-08-26T12:04:22Z</time>
      </trkpt>
      <trkpt lat="48.84849" lon="2.55298">
        <ele>85.8</ele>
        <time>2018-08-26T12:04:37Z</time>
      </trkpt>
      <trkpt lat="48.84848" lon="2.55301">
        <ele>85.8</ele>
        <time>2018-08-26T12:04:56Z</time>
      </trkpt>
      <trkpt lat="48.84849" lon="2.55304">
        <ele>85.9</ele>
        <time>2018-08-26T12:05:12Z</time>
      </trkpt>
      <trkpt lat="48.84826" lon="2.55235">
        <ele>86.3</ele>
        <time>2018-08-26T12:35:26Z</time>
      </trkpt>
      <trkpt lat="48.84827" lon="2.55258">
        <ele>86.3</ele>
        <time>2018-08-26T12:35:28Z</time>
      </trkpt>
      <trkpt lat="48.84814" lon="2.553">
        <ele>87.1</ele>
        <time>2018-08-26T12:35:35Z</time>
      </trkpt>
      <trkpt lat="48.84811" lon="2.55301">
        <ele>87.1</ele>
        <time>2018-08-26T12:35:38Z</time>
      </trkpt>
      <trkpt lat="48.84798" lon="2.55299">
        <ele>87.7</ele>
        <time>2018-08-26T12:35:46Z</time>
      </trkpt>
      <trkpt lat="48.8478" lon="2.55297">
        <ele>88.9</ele>
        <time>2018-08-26T12:36:01Z</time>
      </trkpt>
      <trkpt lat="48.84777" lon="2.55298">
        <ele>89</ele>
        <time>2018-08-26T12:36:04Z</time>
      </trkpt>
      <trkpt lat="48.8478" lon="2.55323">
        <ele>88.9</ele>
        <time>2018-08-26T12:36:18Z</time>
      </trkpt>
      <trkpt lat="48.84783" lon="2.55348">
        <ele>88.8</ele>
        <time>2018-08-26T12:36:33Z</time>
      </trkpt>
      <trkpt lat="48.84782" lon="2.55367">
        <ele>88.9</ele>
        <time>2018-08-26T12:36:47Z</time>
      </trkpt>
      <trkpt lat="48.84784" lon="2.55382">
        <ele>88.8</ele>
        <time>2018-08-26T12:37:01Z</time>
      </trkpt>
      <trkpt lat="48.84787" lon="2.55387">
        <ele>88.7</ele>
        <time>2018-08-26T12:37:05Z</time>
      </trkpt>
      <trkpt lat="48.84787" lon="2.55419">
        <ele>89.4</ele>
        <time>2018-08-26T12:37:23Z</time>
      </trkpt>
      <trkpt lat="48.84787" lon="2.55421">
        <ele>89.4</ele>
        <time>2018-08-26T12:37:24Z</time>
      </trkpt>
      <trkpt lat="48.84788" lon="2.55434">
        <ele>89.5</ele>
        <time>2018-08-26T12:37:32Z</time>
      </trkpt>
      <trkpt lat="48.84791" lon="2.55452">
        <ele>89.6</ele>
        <time>2018-08-26T12:37:43Z</time>
      </trkpt>
      <trkpt lat="48.84793" lon="2.55474">
        <ele>90</ele>
        <time>2018-08-26T12:37:58Z</time>
      </trkpt>
      <trkpt lat="48.84795" lon="2.55498">
        <ele>89.4</ele>
        <time>2018-08-26T12:38:13Z</time>
      </trkpt>
      <trkpt lat="48.84797" lon="2.5552">
        <ele>90</ele>
        <time>2018-08-26T12:38:29Z</time>
      </trkpt>
      <trkpt lat="48.848" lon="2.55546">
        <ele>89.7</ele>
        <time>2018-08-26T12:38:48Z</time>
      </trkpt>
      <trkpt lat="48.84801" lon="2.5555">
        <ele>89.5</ele>
        <time>2018-08-26T12:38:52Z</time>
      </trkpt>
      <trkpt lat="48.84803" lon="2.55564">
        <ele>89.2</ele>
        <time>2018-08-26T12:39:02Z</time>
      </trkpt>
      <trkpt lat="48.84807" lon="2.55604">
        <ele>88.2</ele>
        <time>2018-08-26T12:39:24Z</time>
      </trkpt>
      <trkpt lat="48.84809" lon="2.5563">
        <ele>87.9</ele>
        <time>2018-08-26T12:39:44Z</time>
      </trkpt>
      <trkpt lat="48.84814" lon="2.55651">
        <ele>88</ele>
        <time>2018-08-26T12:40:02Z</time>
      </trkpt>
      <trkpt lat="48.84822" lon="2.55656">
        <ele>87.6</ele>
        <time>2018-08-26T12:40:09Z</time>
      </trkpt>
      <trkpt lat="48.8484" lon="2.55673">
        <ele>86.6</ele>
        <time>2018-08-26T12:40:28Z</time>
      </trkpt>
      <trkpt lat="48.84843" lon="2.55674">
        <ele>86.4</ele>
        <time>2018-08-26T12:40:30Z</time>
      </trkpt>
      <trkpt lat="48.84855" lon="2.55682">
        <ele>85.7</ele>
        <time>2018-08-26T12:40:45Z</time>
      </trkpt>
    </trkseg>
  </trk>
</gpx>